sensor_id;sensor_type;location;lat;lon;timestamp;P1;durP1;ratioP1;P2;durP2;ratioP2
54835;SDS011;43486;43.574;1.476;2024-02-21T00:01:39;8.80;;;5.22;;
54835;SDS011;43486;43.574;1.476;2024-02-21T00:04:05;10.77;;;4.25;;
54835;SDS011;43486;43.574;1.476;2024-02-21T00:06:31;7.43;;;4.15;;
54835;SDS011;43486;43.574;1.476;2024-02-21T00:08:56;11.25;;;5.63;;
54835;SDS011;43486;43.574;1.476;2024-02-21T00:11:22;8.93;;;4.43;;
54835;SDS011;43486;43.574;1.476;2024-02-21T00:13:47;8.68;;;5.80;;
54835;SDS011;43486;43.574;1.476;2024-02-21T00:16:12;8.88;;;5.55;;
54835;SDS011;43486;43.574;1.476;2024-02-21T00:18:40;12.07;;;5.47;;
54835;SDS011;43486;43.574;1.476;2024-02-21T00:21:05;12.10;;;4.45;;
54835;SDS011;43486;43.574;1.476;2024-02-21T00:23:31;11.70;;;5.15;;
54835;SDS011;43486;43.574;1.476;2024-02-21T00:25:56;7.82;;;4.97;;
54835;SDS011;43486;43.574;1.476;2024-02-21T00:28:21;10.00;;;5.20;;
54835;SDS011;43486;43.574;1.476;2024-02-21T00:30:47;9.77;;;5.57;;
54835;SDS011;43486;43.574;1.476;2024-02-21T00:33:13;9.30;;;5.75;;
54835;SDS011;43486;43.574;1.476;2024-02-21T00:35:39;9.30;;;5.10;;
54835;SDS011;43486;43.574;1.476;2024-02-21T00:38:04;9.10;;;5.32;;
54835;SDS011;43486;43.574;1.476;2024-02-21T00:40:29;8.93;;;4.28;;
54835;SDS011;43486;43.574;1.476;2024-02-21T00:42:55;12.77;;;5.63;;
54835;SDS011;43486;43.574;1.476;2024-02-21T00:45:20;9.85;;;6.05;;
54835;SDS011;43486;43.574;1.476;2024-02-21T00:47:46;14.00;;;5.78;;
54835;SDS011;43486;43.574;1.476;2024-02-21T00:50:11;10.90;;;4.93;;
54835;SDS011;43486;43.574;1.476;2024-02-21T00:52:37;11.13;;;5.28;;
54835;SDS011;43486;43.574;1.476;2024-02-21T00:55:02;10.52;;;5.70;;
54835;SDS011;43486;43.574;1.476;2024-02-21T00:57:27;8.68;;;5.22;;
54835;SDS011;43486;43.574;1.476;2024-02-21T00:59:53;7.35;;;4.22;;
54835;SDS011;43486;43.574;1.476;2024-02-21T01:02:18;18.20;;;5.82;;
54835;SDS011;43486;43.574;1.476;2024-02-21T01:04:44;13.77;;;6.57;;
54835;SDS011;43486;43.574;1.476;2024-02-21T01:07:09;10.52;;;4.55;;
54835;SDS011;43486;43.574;1.476;2024-02-21T01:09:34;8.48;;;4.07;;
54835;SDS011;43486;43.574;1.476;2024-02-21T01:12:00;13.18;;;5.25;;
54835;SDS011;43486;43.574;1.476;2024-02-21T01:14:25;11.88;;;5.43;;
54835;SDS011;43486;43.574;1.476;2024-02-21T01:16:50;8.10;;;4.57;;
54835;SDS011;43486;43.574;1.476;2024-02-21T01:19:16;7.55;;;5.15;;
54835;SDS011;43486;43.574;1.476;2024-02-21T01:21:41;13.02;;;5.90;;
54835;SDS011;43486;43.574;1.476;2024-02-21T01:24:07;8.20;;;4.05;;
54835;SDS011;43486;43.574;1.476;2024-02-21T01:26:32;9.05;;;4.93;;
54835;SDS011;43486;43.574;1.476;2024-02-21T01:28:57;9.90;;;5.07;;
54835;SDS011;43486;43.574;1.476;2024-02-21T01:31:23;6.95;;;4.40;;
54835;SDS011;43486;43.574;1.476;2024-02-21T01:33:48;9.93;;;5.00;;
54835;SDS011;43486;43.574;1.476;2024-02-21T01:36:13;14.18;;;5.70;;
54835;SDS011;43486;43.574;1.476;2024-02-21T01:38:39;8.10;;;4.32;;
54835;SDS011;43486;43.574;1.476;2024-02-21T01:41:04;13.02;;;5.30;;
54835;SDS011;43486;43.574;1.476;2024-02-21T01:43:29;10.13;;;5.30;;
54835;SDS011;43486;43.574;1.476;2024-02-21T01:45:55;8.90;;;5.70;;
54835;SDS011;43486;43.574;1.476;2024-02-21T01:48:21;8.88;;;5.00;;
54835;SDS011;43486;43.574;1.476;2024-02-21T01:50:48;8.20;;;4.55;;
54835;SDS011;43486;43.574;1.476;2024-02-21T01:53:34;8.63;;;4.47;;
54835;SDS011;43486;43.574;1.476;2024-02-21T01:56:02;7.88;;;4.43;;
54835;SDS011;43486;43.574;1.476;2024-02-21T01:58:27;11.85;;;5.35;;
54835;SDS011;43486;43.574;1.476;2024-02-21T02:00:54;9.07;;;5.60;;
54835;SDS011;43486;43.574;1.476;2024-02-21T02:03:21;11.05;;;4.85;;
54835;SDS011;43486;43.574;1.476;2024-02-21T02:05:47;13.07;;;5.07;;
54835;SDS011;43486;43.574;1.476;2024-02-21T02:08:18;9.38;;;4.35;;
54835;SDS011;43486;43.574;1.476;2024-02-21T02:10:44;7.93;;;4.53;;
54835;SDS011;43486;43.574;1.476;2024-02-21T02:13:10;7.05;;;4.32;;
54835;SDS011;43486;43.574;1.476;2024-02-21T02:15:46;9.82;;;4.72;;
54835;SDS011;43486;43.574;1.476;2024-02-21T02:18:12;8.43;;;4.60;;
54835;SDS011;43486;43.574;1.476;2024-02-21T02:20:39;9.57;;;5.35;;
54835;SDS011;43486;43.574;1.476;2024-02-21T02:23:11;11.27;;;5.20;;
54835;SDS011;43486;43.574;1.476;2024-02-21T02:25:45;7.53;;;3.70;;
54835;SDS011;43486;43.574;1.476;2024-02-21T02:28:14;13.48;;;4.78;;
54835;SDS011;43486;43.574;1.476;2024-02-21T02:30:39;9.35;;;4.40;;
54835;SDS011;43486;43.574;1.476;2024-02-21T02:33:05;9.40;;;4.22;;
54835;SDS011;43486;43.574;1.476;2024-02-21T02:35:31;7.43;;;4.82;;
54835;SDS011;43486;43.574;1.476;2024-02-21T02:37:57;9.70;;;4.57;;
54835;SDS011;43486;43.574;1.476;2024-02-21T02:40:22;10.07;;;4.30;;
54835;SDS011;43486;43.574;1.476;2024-02-21T02:42:48;7.03;;;3.38;;
54835;SDS011;43486;43.574;1.476;2024-02-21T02:45:15;8.20;;;4.20;;
54835;SDS011;43486;43.574;1.476;2024-02-21T02:47:40;9.73;;;4.00;;
54835;SDS011;43486;43.574;1.476;2024-02-21T02:50:06;9.02;;;4.22;;
54835;SDS011;43486;43.574;1.476;2024-02-21T02:52:32;9.57;;;4.55;;
54835;SDS011;43486;43.574;1.476;2024-02-21T02:54:58;10.23;;;4.85;;
54835;SDS011;43486;43.574;1.476;2024-02-21T02:57:23;6.95;;;4.07;;
54835;SDS011;43486;43.574;1.476;2024-02-21T02:59:49;7.20;;;4.00;;
54835;SDS011;43486;43.574;1.476;2024-02-21T03:02:15;7.90;;;3.95;;
54835;SDS011;43486;43.574;1.476;2024-02-21T03:04:40;7.85;;;4.00;;
54835;SDS011;43486;43.574;1.476;2024-02-21T03:07:05;10.73;;;4.43;;
54835;SDS011;43486;43.574;1.476;2024-02-21T03:09:31;6.55;;;4.47;;
54835;SDS011;43486;43.574;1.476;2024-02-21T03:11:56;6.82;;;4.28;;
54835;SDS011;43486;43.574;1.476;2024-02-21T03:14:27;9.50;;;5.10;;
54835;SDS011;43486;43.574;1.476;2024-02-21T03:16:53;11.32;;;4.05;;
54835;SDS011;43486;43.574;1.476;2024-02-21T03:19:18;12.05;;;4.97;;
54835;SDS011;43486;43.574;1.476;2024-02-21T03:21:44;8.73;;;4.30;;
54835;SDS011;43486;43.574;1.476;2024-02-21T03:24:09;8.85;;;4.00;;
54835;SDS011;43486;43.574;1.476;2024-02-21T03:26:34;22.02;;;5.00;;
54835;SDS011;43486;43.574;1.476;2024-02-21T03:29:00;6.72;;;4.22;;
54835;SDS011;43486;43.574;1.476;2024-02-21T03:31:25;13.75;;;5.25;;
54835;SDS011;43486;43.574;1.476;2024-02-21T03:33:50;10.80;;;5.28;;
54835;SDS011;43486;43.574;1.476;2024-02-21T03:36:16;5.80;;;3.33;;
54835;SDS011;43486;43.574;1.476;2024-02-21T03:38:41;9.90;;;4.75;;
54835;SDS011;43486;43.574;1.476;2024-02-21T03:41:06;19.25;;;4.53;;
54835;SDS011;43486;43.574;1.476;2024-02-21T03:43:32;10.95;;;5.22;;
54835;SDS011;43486;43.574;1.476;2024-02-21T03:45:57;11.80;;;4.97;;
54835;SDS011;43486;43.574;1.476;2024-02-21T03:48:23;6.38;;;4.38;;
54835;SDS011;43486;43.574;1.476;2024-02-21T03:50:48;8.85;;;4.80;;
54835;SDS011;43486;43.574;1.476;2024-02-21T03:53:13;8.88;;;4.97;;
54835;SDS011;43486;43.574;1.476;2024-02-21T03:55:39;7.63;;;3.97;;
54835;SDS011;43486;43.574;1.476;2024-02-21T03:58:04;6.25;;;4.55;;
54835;SDS011;43486;43.574;1.476;2024-02-21T04:00:29;8.27;;;4.43;;
54835;SDS011;43486;43.574;1.476;2024-02-21T04:02:55;7.50;;;3.92;;
54835;SDS011;43486;43.574;1.476;2024-02-21T04:05:20;10.10;;;4.13;;
54835;SDS011;43486;43.574;1.476;2024-02-21T04:07:46;7.03;;;3.63;;
54835;SDS011;43486;43.574;1.476;2024-02-21T04:10:12;8.52;;;4.40;;
54835;SDS011;43486;43.574;1.476;2024-02-21T04:12:37;7.90;;;4.22;;
54835;SDS011;43486;43.574;1.476;2024-02-21T04:15:03;9.13;;;4.18;;
54835;SDS011;43486;43.574;1.476;2024-02-21T04:17:29;9.10;;;4.28;;
54835;SDS011;43486;43.574;1.476;2024-02-21T04:20:00;8.30;;;4.15;;
54835;SDS011;43486;43.574;1.476;2024-02-21T04:22:33;8.23;;;4.07;;
54835;SDS011;43486;43.574;1.476;2024-02-21T04:25:02;7.53;;;4.28;;
54835;SDS011;43486;43.574;1.476;2024-02-21T04:27:27;9.32;;;4.55;;
54835;SDS011;43486;43.574;1.476;2024-02-21T04:29:53;6.80;;;3.65;;
54835;SDS011;43486;43.574;1.476;2024-02-21T04:32:18;13.45;;;4.78;;
54835;SDS011;43486;43.574;1.476;2024-02-21T04:34:43;9.35;;;5.18;;
54835;SDS011;43486;43.574;1.476;2024-02-21T04:37:09;7.63;;;4.18;;
54835;SDS011;43486;43.574;1.476;2024-02-21T04:39:35;7.45;;;4.03;;
54835;SDS011;43486;43.574;1.476;2024-02-21T04:42:00;13.40;;;4.70;;
54835;SDS011;43486;43.574;1.476;2024-02-21T04:44:26;10.25;;;4.82;;
54835;SDS011;43486;43.574;1.476;2024-02-21T04:46:51;7.63;;;3.70;;
54835;SDS011;43486;43.574;1.476;2024-02-21T04:49:17;8.88;;;4.10;;
54835;SDS011;43486;43.574;1.476;2024-02-21T04:51:42;8.60;;;3.88;;
54835;SDS011;43486;43.574;1.476;2024-02-21T04:54:08;8.45;;;4.40;;
54835;SDS011;43486;43.574;1.476;2024-02-21T04:56:34;9.55;;;4.13;;
54835;SDS011;43486;43.574;1.476;2024-02-21T04:58:59;8.90;;;4.35;;
54835;SDS011;43486;43.574;1.476;2024-02-21T05:01:24;8.52;;;4.45;;
54835;SDS011;43486;43.574;1.476;2024-02-21T05:03:50;10.70;;;4.30;;
54835;SDS011;43486;43.574;1.476;2024-02-21T05:06:15;7.38;;;3.70;;
54835;SDS011;43486;43.574;1.476;2024-02-21T05:08:40;9.18;;;4.97;;
54835;SDS011;43486;43.574;1.476;2024-02-21T05:11:06;7.75;;;3.92;;
54835;SDS011;43486;43.574;1.476;2024-02-21T05:13:32;7.50;;;3.80;;
54835;SDS011;43486;43.574;1.476;2024-02-21T05:15:57;6.70;;;4.20;;
54835;SDS011;43486;43.574;1.476;2024-02-21T05:18:26;7.40;;;4.25;;
54835;SDS011;43486;43.574;1.476;2024-02-21T05:20:51;7.97;;;4.45;;
54835;SDS011;43486;43.574;1.476;2024-02-21T05:23:17;9.95;;;3.15;;
54835;SDS011;43486;43.574;1.476;2024-02-21T05:25:42;7.40;;;3.90;;
54835;SDS011;43486;43.574;1.476;2024-02-21T05:28:07;9.98;;;3.97;;
54835;SDS011;43486;43.574;1.476;2024-02-21T05:30:33;8.02;;;3.95;;
54835;SDS011;43486;43.574;1.476;2024-02-21T05:32:58;5.95;;;4.15;;
54835;SDS011;43486;43.574;1.476;2024-02-21T05:35:29;8.77;;;4.63;;
54835;SDS011;43486;43.574;1.476;2024-02-21T05:37:54;6.43;;;3.40;;
54835;SDS011;43486;43.574;1.476;2024-02-21T05:40:19;10.70;;;4.70;;
54835;SDS011;43486;43.574;1.476;2024-02-21T05:42:45;9.38;;;3.40;;
54835;SDS011;43486;43.574;1.476;2024-02-21T05:45:10;7.82;;;3.90;;
54835;SDS011;43486;43.574;1.476;2024-02-21T05:47:36;8.75;;;4.07;;
54835;SDS011;43486;43.574;1.476;2024-02-21T05:50:01;6.88;;;3.72;;
54835;SDS011;43486;43.574;1.476;2024-02-21T05:52:26;11.25;;;4.00;;
54835;SDS011;43486;43.574;1.476;2024-02-21T05:54:52;7.85;;;3.50;;
54835;SDS011;43486;43.574;1.476;2024-02-21T05:57:17;17.10;;;4.68;;
54835;SDS011;43486;43.574;1.476;2024-02-21T05:59:43;8.45;;;4.20;;
54835;SDS011;43486;43.574;1.476;2024-02-21T06:02:08;8.70;;;4.43;;
54835;SDS011;43486;43.574;1.476;2024-02-21T06:04:34;6.85;;;3.83;;
54835;SDS011;43486;43.574;1.476;2024-02-21T06:07:00;7.65;;;5.35;;
54835;SDS011;43486;43.574;1.476;2024-02-21T06:09:26;7.85;;;3.22;;
54835;SDS011;43486;43.574;1.476;2024-02-21T06:11:51;7.15;;;3.53;;
54835;SDS011;43486;43.574;1.476;2024-02-21T06:14:17;8.00;;;4.28;;
54835;SDS011;43486;43.574;1.476;2024-02-21T06:16:45;6.53;;;3.22;;
54835;SDS011;43486;43.574;1.476;2024-02-21T06:19:11;6.95;;;3.88;;
54835;SDS011;43486;43.574;1.476;2024-02-21T06:21:36;6.15;;;3.85;;
54835;SDS011;43486;43.574;1.476;2024-02-21T06:24:02;7.82;;;4.00;;
54835;SDS011;43486;43.574;1.476;2024-02-21T06:26:28;8.05;;;4.13;;
54835;SDS011;43486;43.574;1.476;2024-02-21T06:28:53;9.00;;;3.30;;
54835;SDS011;43486;43.574;1.476;2024-02-21T06:31:18;10.20;;;4.25;;
54835;SDS011;43486;43.574;1.476;2024-02-21T06:33:44;7.20;;;3.33;;
54835;SDS011;43486;43.574;1.476;2024-02-21T06:36:09;7.82;;;4.40;;
54835;SDS011;43486;43.574;1.476;2024-02-21T06:38:35;7.97;;;4.13;;
54835;SDS011;43486;43.574;1.476;2024-02-21T06:41:00;9.98;;;4.15;;
54835;SDS011;43486;43.574;1.476;2024-02-21T06:43:27;8.32;;;4.00;;
54835;SDS011;43486;43.574;1.476;2024-02-21T06:45:53;7.32;;;3.72;;
54835;SDS011;43486;43.574;1.476;2024-02-21T06:48:20;8.18;;;4.28;;
54835;SDS011;43486;43.574;1.476;2024-02-21T06:50:45;6.47;;;3.17;;
54835;SDS011;43486;43.574;1.476;2024-02-21T06:53:11;6.90;;;3.65;;
54835;SDS011;43486;43.574;1.476;2024-02-21T06:55:36;11.65;;;3.83;;
54835;SDS011;43486;43.574;1.476;2024-02-21T06:58:01;9.48;;;4.00;;
54835;SDS011;43486;43.574;1.476;2024-02-21T07:00:30;11.93;;;4.28;;
54835;SDS011;43486;43.574;1.476;2024-02-21T07:02:55;9.38;;;4.05;;
54835;SDS011;43486;43.574;1.476;2024-02-21T07:05:20;9.50;;;4.03;;
54835;SDS011;43486;43.574;1.476;2024-02-21T07:07:46;7.60;;;3.60;;
54835;SDS011;43486;43.574;1.476;2024-02-21T07:10:11;7.35;;;4.20;;
54835;SDS011;43486;43.574;1.476;2024-02-21T07:12:37;14.25;;;4.65;;
54835;SDS011;43486;43.574;1.476;2024-02-21T07:15:06;8.90;;;4.18;;
54835;SDS011;43486;43.574;1.476;2024-02-21T07:17:32;7.78;;;3.72;;
54835;SDS011;43486;43.574;1.476;2024-02-21T07:19:57;4.88;;;2.58;;
54835;SDS011;43486;43.574;1.476;2024-02-21T07:22:24;9.48;;;4.65;;
54835;SDS011;43486;43.574;1.476;2024-02-21T07:24:49;18.27;;;5.15;;
54835;SDS011;43486;43.574;1.476;2024-02-21T07:27:15;7.03;;;3.42;;
54835;SDS011;43486;43.574;1.476;2024-02-21T07:29:40;9.55;;;4.43;;
54835;SDS011;43486;43.574;1.476;2024-02-21T07:32:06;9.98;;;3.85;;
54835;SDS011;43486;43.574;1.476;2024-02-21T07:34:31;8.57;;;3.42;;
54835;SDS011;43486;43.574;1.476;2024-02-21T07:36:57;8.65;;;3.35;;
54835;SDS011;43486;43.574;1.476;2024-02-21T07:39:22;8.55;;;3.80;;
54835;SDS011;43486;43.574;1.476;2024-02-21T07:41:48;6.82;;;2.95;;
54835;SDS011;43486;43.574;1.476;2024-02-21T07:44:14;12.63;;;4.25;;
54835;SDS011;43486;43.574;1.476;2024-02-21T07:46:40;8.73;;;3.97;;
54835;SDS011;43486;43.574;1.476;2024-02-21T07:49:05;7.55;;;4.38;;
54835;SDS011;43486;43.574;1.476;2024-02-21T07:51:30;7.55;;;4.18;;
54835;SDS011;43486;43.574;1.476;2024-02-21T07:53:56;12.80;;;3.72;;
54835;SDS011;43486;43.574;1.476;2024-02-21T07:56:21;9.55;;;3.67;;
54835;SDS011;43486;43.574;1.476;2024-02-21T07:58:47;12.07;;;4.05;;
54835;SDS011;43486;43.574;1.476;2024-02-21T08:01:17;8.00;;;3.72;;
54835;SDS011;43486;43.574;1.476;2024-02-21T08:03:43;14.50;;;5.13;;
54835;SDS011;43486;43.574;1.476;2024-02-21T08:06:11;5.75;;;3.25;;
54835;SDS011;43486;43.574;1.476;2024-02-21T08:08:37;11.15;;;3.97;;
54835;SDS011;43486;43.574;1.476;2024-02-21T08:11:02;15.93;;;3.67;;
54835;SDS011;43486;43.574;1.476;2024-02-21T08:13:28;7.47;;;3.25;;
54835;SDS011;43486;43.574;1.476;2024-02-21T08:15:53;6.85;;;3.72;;
54835;SDS011;43486;43.574;1.476;2024-02-21T08:18:19;7.10;;;3.20;;
54835;SDS011;43486;43.574;1.476;2024-02-21T08:20:44;8.25;;;3.28;;
54835;SDS011;43486;43.574;1.476;2024-02-21T08:23:10;7.93;;;3.42;;
54835;SDS011;43486;43.574;1.476;2024-02-21T08:25:35;9.18;;;4.20;;
54835;SDS011;43486;43.574;1.476;2024-02-21T08:28:01;7.05;;;3.33;;
54835;SDS011;43486;43.574;1.476;2024-02-21T08:30:26;10.43;;;4.00;;
54835;SDS011;43486;43.574;1.476;2024-02-21T08:32:52;6.75;;;3.72;;
54835;SDS011;43486;43.574;1.476;2024-02-21T08:35:19;7.10;;;3.70;;
54835;SDS011;43486;43.574;1.476;2024-02-21T08:37:45;6.82;;;4.00;;
54835;SDS011;43486;43.574;1.476;2024-02-21T08:40:13;8.98;;;3.42;;
54835;SDS011;43486;43.574;1.476;2024-02-21T08:42:39;9.23;;;3.45;;
54835;SDS011;43486;43.574;1.476;2024-02-21T08:45:04;10.63;;;3.95;;
54835;SDS011;43486;43.574;1.476;2024-02-21T08:47:30;9.00;;;3.35;;
54835;SDS011;43486;43.574;1.476;2024-02-21T08:49:55;8.70;;;3.22;;
54835;SDS011;43486;43.574;1.476;2024-02-21T08:52:21;7.68;;;3.75;;
54835;SDS011;43486;43.574;1.476;2024-02-21T08:54:46;4.70;;;2.63;;
54835;SDS011;43486;43.574;1.476;2024-02-21T08:57:11;9.95;;;3.85;;
54835;SDS011;43486;43.574;1.476;2024-02-21T08:59:39;8.82;;;2.97;;
54835;SDS011;43486;43.574;1.476;2024-02-21T09:02:04;5.72;;;3.67;;
54835;SDS011;43486;43.574;1.476;2024-02-21T09:04:30;6.25;;;3.45;;
54835;SDS011;43486;43.574;1.476;2024-02-21T09:06:56;9.18;;;4.13;;
54835;SDS011;43486;43.574;1.476;2024-02-21T09:09:21;8.23;;;3.28;;
54835;SDS011;43486;43.574;1.476;2024-02-21T09:11:46;9.40;;;3.13;;
54835;SDS011;43486;43.574;1.476;2024-02-21T09:14:12;6.03;;;2.42;;
54835;SDS011;43486;43.574;1.476;2024-02-21T09:16:37;9.93;;;3.38;;
54835;SDS011;43486;43.574;1.476;2024-02-21T09:19:02;10.85;;;3.35;;
54835;SDS011;43486;43.574;1.476;2024-02-21T09:21:28;5.63;;;2.88;;
54835;SDS011;43486;43.574;1.476;2024-02-21T09:23:53;8.45;;;3.88;;
54835;SDS011;43486;43.574;1.476;2024-02-21T09:26:19;6.45;;;3.42;;
54835;SDS011;43486;43.574;1.476;2024-02-21T09:28:44;3.90;;;2.35;;
54835;SDS011;43486;43.574;1.476;2024-02-21T09:31:10;11.90;;;3.83;;
54835;SDS011;43486;43.574;1.476;2024-02-21T09:33:35;5.45;;;2.78;;
54835;SDS011;43486;43.574;1.476;2024-02-21T09:36:02;7.03;;;2.88;;
54835;SDS011;43486;43.574;1.476;2024-02-21T09:38:27;11.07;;;4.40;;
54835;SDS011;43486;43.574;1.476;2024-02-21T09:40:58;6.47;;;3.45;;
54835;SDS011;43486;43.574;1.476;2024-02-21T09:43:26;8.70;;;3.03;;
54835;SDS011;43486;43.574;1.476;2024-02-21T09:45:51;6.95;;;3.38;;
54835;SDS011;43486;43.574;1.476;2024-02-21T09:48:25;6.70;;;2.92;;
54835;SDS011;43486;43.574;1.476;2024-02-21T09:51:08;5.85;;;2.53;;
54835;SDS011;43486;43.574;1.476;2024-02-21T09:53:34;8.65;;;3.05;;
54835;SDS011;43486;43.574;1.476;2024-02-21T09:56:00;6.15;;;3.45;;
54835;SDS011;43486;43.574;1.476;2024-02-21T09:58:26;7.32;;;3.33;;
54835;SDS011;43486;43.574;1.476;2024-02-21T10:00:52;4.32;;;2.47;;
54835;SDS011;43486;43.574;1.476;2024-02-21T10:03:18;6.15;;;3.35;;
54835;SDS011;43486;43.574;1.476;2024-02-21T10:05:46;5.38;;;3.05;;
54835;SDS011;43486;43.574;1.476;2024-02-21T10:08:14;6.00;;;2.67;;
54835;SDS011;43486;43.574;1.476;2024-02-21T10:10:41;5.10;;;2.58;;
54835;SDS011;43486;43.574;1.476;2024-02-21T10:13:10;6.00;;;2.85;;
54835;SDS011;43486;43.574;1.476;2024-02-21T10:15:36;5.25;;;3.15;;
54835;SDS011;43486;43.574;1.476;2024-02-21T10:18:02;4.78;;;2.95;;
54835;SDS011;43486;43.574;1.476;2024-02-21T10:20:31;5.25;;;2.75;;
54835;SDS011;43486;43.574;1.476;2024-02-21T10:23:01;4.70;;;2.63;;
54835;SDS011;43486;43.574;1.476;2024-02-21T10:25:33;4.78;;;2.55;;
54835;SDS011;43486;43.574;1.476;2024-02-21T10:27:59;5.28;;;2.78;;
54835;SDS011;43486;43.574;1.476;2024-02-21T10:30:24;5.35;;;2.42;;
54835;SDS011;43486;43.574;1.476;2024-02-21T10:32:50;6.05;;;2.75;;
54835;SDS011;43486;43.574;1.476;2024-02-21T10:35:25;3.38;;;2.05;;
54835;SDS011;43486;43.574;1.476;2024-02-21T10:37:58;6.28;;;2.47;;
54835;SDS011;43486;43.574;1.476;2024-02-21T10:40:25;6.32;;;2.75;;
54835;SDS011;43486;43.574;1.476;2024-02-21T10:42:57;6.13;;;2.63;;
54835;SDS011;43486;43.574;1.476;2024-02-21T10:48:00;3.28;;;2.08;;
54835;SDS011;43486;43.574;1.476;2024-02-21T10:50:52;6.55;;;3.17;;
54835;SDS011;43486;43.574;1.476;2024-02-21T10:58:51;4.05;;;2.35;;
54835;SDS011;43486;43.574;1.476;2024-02-21T11:01:17;8.10;;;2.55;;
54835;SDS011;43486;43.574;1.476;2024-02-21T11:03:43;5.78;;;2.65;;
54835;SDS011;43486;43.574;1.476;2024-02-21T11:06:10;5.47;;;2.15;;
54835;SDS011;43486;43.574;1.476;2024-02-21T11:08:36;4.32;;;2.15;;
54835;SDS011;43486;43.574;1.476;2024-02-21T11:11:02;4.93;;;2.65;;
54835;SDS011;43486;43.574;1.476;2024-02-21T11:13:31;5.30;;;2.40;;
54835;SDS011;43486;43.574;1.476;2024-02-21T11:16:09;4.75;;;2.35;;
54835;SDS011;43486;43.574;1.476;2024-02-21T11:18:36;3.95;;;2.00;;
54835;SDS011;43486;43.574;1.476;2024-02-21T11:21:02;6.55;;;2.97;;
54835;SDS011;43486;43.574;1.476;2024-02-21T11:23:29;5.70;;;2.28;;
54835;SDS011;43486;43.574;1.476;2024-02-21T11:26:10;6.18;;;3.30;;
54835;SDS011;43486;43.574;1.476;2024-02-21T11:28:55;5.05;;;1.92;;
54835;SDS011;43486;43.574;1.476;2024-02-21T11:31:21;8.88;;;2.83;;
54835;SDS011;43486;43.574;1.476;2024-02-21T11:33:47;5.32;;;2.40;;
54835;SDS011;43486;43.574;1.476;2024-02-21T11:36:22;4.57;;;2.35;;
54835;SDS011;43486;43.574;1.476;2024-02-21T11:38:51;7.30;;;2.75;;
54835;SDS011;43486;43.574;1.476;2024-02-21T11:41:18;3.97;;;2.05;;
54835;SDS011;43486;43.574;1.476;2024-02-21T11:43:44;3.72;;;2.08;;
54835;SDS011;43486;43.574;1.476;2024-02-21T11:46:09;3.60;;;1.88;;
54835;SDS011;43486;43.574;1.476;2024-02-21T11:48:34;3.65;;;1.85;;
54835;SDS011;43486;43.574;1.476;2024-02-21T11:51:00;3.60;;;1.80;;
54835;SDS011;43486;43.574;1.476;2024-02-21T11:53:26;4.05;;;2.08;;
54835;SDS011;43486;43.574;1.476;2024-02-21T11:55:55;9.98;;;2.58;;
54835;SDS011;43486;43.574;1.476;2024-02-21T11:58:21;5.03;;;2.40;;
54835;SDS011;43486;43.574;1.476;2024-02-21T12:00:47;6.15;;;2.58;;
54835;SDS011;43486;43.574;1.476;2024-02-21T12:03:13;8.02;;;2.20;;
54835;SDS011;43486;43.574;1.476;2024-02-21T12:05:38;3.83;;;2.20;;
54835;SDS011;43486;43.574;1.476;2024-02-21T12:08:04;4.82;;;2.53;;
54835;SDS011;43486;43.574;1.476;2024-02-21T12:10:30;4.88;;;2.47;;
54835;SDS011;43486;43.574;1.476;2024-02-21T12:13:08;4.13;;;2.15;;
54835;SDS011;43486;43.574;1.476;2024-02-21T12:15:33;5.13;;;2.00;;
54835;SDS011;43486;43.574;1.476;2024-02-21T12:17:59;5.82;;;2.35;;
54835;SDS011;43486;43.574;1.476;2024-02-21T12:20:25;4.03;;;2.10;;
54835;SDS011;43486;43.574;1.476;2024-02-21T12:22:50;18.73;;;2.90;;
54835;SDS011;43486;43.574;1.476;2024-02-21T12:25:20;3.92;;;2.08;;
54835;SDS011;43486;43.574;1.476;2024-02-21T12:27:51;5.05;;;1.95;;
54835;SDS011;43486;43.574;1.476;2024-02-21T12:30:17;3.72;;;1.92;;
54835;SDS011;43486;43.574;1.476;2024-02-21T12:32:42;5.40;;;2.35;;
54835;SDS011;43486;43.574;1.476;2024-02-21T12:35:08;10.13;;;2.63;;
54835;SDS011;43486;43.574;1.476;2024-02-21T12:37:34;4.05;;;1.73;;
54835;SDS011;43486;43.574;1.476;2024-02-21T12:39:59;3.22;;;1.73;;
54835;SDS011;43486;43.574;1.476;2024-02-21T12:42:25;3.50;;;1.83;;
54835;SDS011;43486;43.574;1.476;2024-02-21T12:44:51;3.25;;;1.75;;
54835;SDS011;43486;43.574;1.476;2024-02-21T12:47:17;3.03;;;1.63;;
54835;SDS011;43486;43.574;1.476;2024-02-21T12:49:44;3.58;;;1.50;;
54835;SDS011;43486;43.574;1.476;2024-02-21T12:52:10;4.72;;;1.58;;
54835;SDS011;43486;43.574;1.476;2024-02-21T12:54:36;9.07;;;2.45;;
54835;SDS011;43486;43.574;1.476;2024-02-21T12:57:01;10.55;;;2.45;;
54835;SDS011;43486;43.574;1.476;2024-02-21T12:59:28;4.28;;;2.50;;
54835;SDS011;43486;43.574;1.476;2024-02-21T13:01:56;6.75;;;2.15;;
54835;SDS011;43486;43.574;1.476;2024-02-21T13:04:21;3.60;;;1.42;;
54835;SDS011;43486;43.574;1.476;2024-02-21T13:06:47;3.20;;;1.73;;
54835;SDS011;43486;43.574;1.476;2024-02-21T13:09:13;4.13;;;1.70;;
54835;SDS011;43486;43.574;1.476;2024-02-21T13:11:39;2.45;;;1.38;;
54835;SDS011;43486;43.574;1.476;2024-02-21T13:14:06;3.30;;;1.38;;
54835;SDS011;43486;43.574;1.476;2024-02-21T13:16:31;6.25;;;2.85;;
54835;SDS011;43486;43.574;1.476;2024-02-21T13:18:59;5.20;;;1.80;;
54835;SDS011;43486;43.574;1.476;2024-02-21T13:21:24;6.07;;;1.92;;
54835;SDS011;43486;43.574;1.476;2024-02-21T13:23:50;5.43;;;2.05;;
54835;SDS011;43486;43.574;1.476;2024-02-21T13:26:16;5.20;;;2.22;;
54835;SDS011;43486;43.574;1.476;2024-02-21T13:28:41;9.35;;;2.40;;
54835;SDS011;43486;43.574;1.476;2024-02-21T13:31:07;5.82;;;2.17;;
54835;SDS011;43486;43.574;1.476;2024-02-21T13:33:32;4.82;;;2.03;;
54835;SDS011;43486;43.574;1.476;2024-02-21T13:35:57;3.53;;;1.45;;
54835;SDS011;43486;43.574;1.476;2024-02-21T13:38:23;3.90;;;2.00;;
54835;SDS011;43486;43.574;1.476;2024-02-21T13:40:49;15.93;;;2.15;;
54835;SDS011;43486;43.574;1.476;2024-02-21T13:43:15;2.05;;;1.20;;
54835;SDS011;43486;43.574;1.476;2024-02-21T13:45:41;2.88;;;1.38;;
54835;SDS011;43486;43.574;1.476;2024-02-21T13:48:21;3.67;;;1.70;;
54835;SDS011;43486;43.574;1.476;2024-02-21T13:50:46;6.13;;;2.03;;
54835;SDS011;43486;43.574;1.476;2024-02-21T13:53:12;3.63;;;1.65;;
54835;SDS011;43486;43.574;1.476;2024-02-21T13:55:37;4.95;;;1.58;;
54835;SDS011;43486;43.574;1.476;2024-02-21T13:58:03;3.63;;;1.63;;
54835;SDS011;43486;43.574;1.476;2024-02-21T14:00:28;4.88;;;1.65;;
54835;SDS011;43486;43.574;1.476;2024-02-21T14:02:53;15.30;;;1.73;;
54835;SDS011;43486;43.574;1.476;2024-02-21T14:05:19;7.45;;;2.15;;
54835;SDS011;43486;43.574;1.476;2024-02-21T14:07:45;2.03;;;1.10;;
54835;SDS011;43486;43.574;1.476;2024-02-21T14:10:10;3.00;;;1.40;;
54835;SDS011;43486;43.574;1.476;2024-02-21T14:12:35;3.35;;;2.00;;
54835;SDS011;43486;43.574;1.476;2024-02-21T14:15:01;4.85;;;1.95;;
54835;SDS011;43486;43.574;1.476;2024-02-21T14:17:26;3.15;;;1.55;;
54835;SDS011;43486;43.574;1.476;2024-02-21T14:19:51;4.50;;;1.55;;
54835;SDS011;43486;43.574;1.476;2024-02-21T14:22:17;2.38;;;1.23;;
54835;SDS011;43486;43.574;1.476;2024-02-21T14:24:42;3.30;;;1.70;;
54835;SDS011;43486;43.574;1.476;2024-02-21T14:27:08;1.42;;;1.33;;
54835;SDS011;43486;43.574;1.476;2024-02-21T14:29:34;4.18;;;1.63;;
54835;SDS011;43486;43.574;1.476;2024-02-21T14:31:59;3.58;;;1.70;;
54835;SDS011;43486;43.574;1.476;2024-02-21T14:34:24;2.65;;;1.40;;
54835;SDS011;43486;43.574;1.476;2024-02-21T14:36:51;3.47;;;2.08;;
54835;SDS011;43486;43.574;1.476;2024-02-21T14:39:16;7.95;;;1.75;;
54835;SDS011;43486;43.574;1.476;2024-02-21T14:41:42;2.45;;;1.20;;
54835;SDS011;43486;43.574;1.476;2024-02-21T14:44:08;3.75;;;1.80;;
54835;SDS011;43486;43.574;1.476;2024-02-21T14:46:35;2.00;;;1.30;;
54835;SDS011;43486;43.574;1.476;2024-02-21T14:49:00;3.83;;;1.55;;